createdAt,value
2022-11-24T00:02:20.812Z,1.3
2022-11-24T00:04:41.979Z,1.3
2022-11-24T00:07:22.638Z,1.4
2022-11-24T00:10:03.364Z,1.5
2022-11-24T00:15:04.122Z,1.5
2022-11-24T00:17:34.734Z,1.5
2022-11-24T00:20:05.321Z,1.6
2022-11-24T00:22:45.931Z,1.7
2022-11-24T00:25:16.548Z,1.8
2022-11-24T00:27:47.163Z,1.9
2022-11-24T00:30:17.775Z,1.9
2022-11-24T00:32:48.438Z,1.9
2022-11-24T00:35:19.039Z,2.0
2022-11-24T00:37:59.650Z,2.0
2022-11-24T00:40:34.799Z,2.1
2022-11-24T00:42:55.556Z,2.2
2022-11-24T00:45:26.154Z,2.2
2022-11-24T00:47:57.066Z,2.3
2022-11-24T00:50:27.692Z,2.3
2022-11-24T00:55:38.449Z,2.3
2022-11-24T00:58:09.028Z,2.3
2022-11-24T01:00:39.641Z,2.3
2022-11-24T01:03:10.292Z,2.4
2022-11-24T01:05:40.915Z,2.4
2022-11-24T01:08:21.594Z,2.4
2022-11-24T01:10:52.196Z,2.3
2022-11-24T01:13:32.776Z,2.2
2022-11-24T01:16:03.414Z,2.1
2022-11-24T01:18:34.321Z,2.0
2022-11-24T01:21:09.776Z,2.0
2022-11-24T01:23:40.655Z,2.0
2022-11-24T01:26:11.274Z,2.0
2022-11-24T01:28:45.007Z,2.0
2022-11-24T01:31:17.233Z,2.0
2022-11-24T01:36:28.081Z,2.0
2022-11-24T01:38:58.707Z,2.1
2022-11-24T01:41:29.269Z,2.1
2022-11-24T01:43:59.840Z,2.1
2022-11-24T01:46:30.501Z,2.2
2022-11-24T01:49:01.128Z,2.2
2022-11-24T01:51:41.782Z,2.3
2022-11-24T01:54:12.393Z,2.3
2022-11-24T01:56:43.350Z,2.3
2022-11-24T01:59:13.995Z,2.4
2022-11-24T02:01:44.716Z,2.5
2022-11-24T02:04:15.491Z,2.5
2022-11-24T02:06:56.431Z,2.5
2022-11-24T02:09:27.208Z,2.6
2022-11-24T02:11:57.809Z,2.6
2022-11-24T02:16:58.544Z,2.6
2022-11-24T02:19:29.117Z,2.7
2022-11-24T02:22:09.701Z,2.7
2022-11-24T02:24:40.291Z,2.7
2022-11-24T02:27:10.900Z,2.6
2022-11-24T02:29:41.507Z,2.6
2022-11-24T02:32:12.121Z,2.6
2022-11-24T02:34:52.725Z,2.6
2022-11-24T02:37:23.336Z,2.6
2022-11-24T02:39:53.941Z,2.6
2022-11-24T02:42:24.566Z,2.7
2022-11-24T02:44:55.148Z,2.7
2022-11-24T02:47:25.760Z,2.6
2022-11-24T02:50:06.433Z,2.6
2022-11-24T02:52:37.047Z,2.6
2022-11-24T02:57:37.784Z,2.5
2022-11-24T03:00:08.384Z,2.6
2022-11-24T03:02:39.057Z,2.6
2022-11-24T03:05:19.904Z,2.6
2022-11-24T03:07:50.533Z,2.7
2022-11-24T03:10:21.144Z,2.6
2022-11-24T03:12:51.796Z,2.6
2022-11-24T03:15:22.401Z,2.5
2022-11-24T03:17:53.179Z,2.5
2022-11-24T03:20:33.811Z,2.4
2022-11-24T03:23:04.427Z,2.4
2022-11-24T03:25:35.032Z,2.4
2022-11-24T03:28:05.662Z,2.4
2022-11-24T03:30:36.270Z,2.3
2022-11-24T03:33:16.965Z,2.3
2022-11-24T03:38:17.732Z,2.4
2022-11-24T03:40:48.350Z,2.3
2022-11-24T03:43:18.924Z,2.3
2022-11-24T03:45:54.431Z,2.4
2022-11-24T03:48:35.163Z,2.5
2022-11-24T03:51:05.789Z,2.6
2022-11-24T03:53:36.396Z,2.6
2022-11-24T03:56:07.020Z,2.6
2022-11-24T03:58:37.640Z,2.6
2022-11-24T04:01:08.253Z,2.6
2022-11-24T04:03:48.999Z,2.5
2022-11-24T04:06:19.605Z,2.5
2022-11-24T04:08:50.187Z,2.5
2022-11-24T04:11:20.789Z,2.5
2022-11-24T04:13:51.390Z,2.5
2022-11-24T04:19:04.383Z,2.4
2022-11-24T04:21:34.963Z,2.4
2022-11-24T04:24:05.554Z,2.4
2022-11-24T04:26:36.172Z,2.4
2022-11-24T04:29:06.776Z,2.3
2022-11-24T04:31:37.404Z,2.3
2022-11-24T04:34:18.092Z,2.3
2022-11-24T04:36:48.683Z,2.4
2022-11-24T04:39:26.203Z,2.4
2022-11-24T04:41:48.985Z,2.4
2022-11-24T04:44:19.570Z,2.4
2022-11-24T04:47:00.272Z,2.3
2022-11-24T04:49:30.930Z,2.3
2022-11-24T04:52:01.529Z,2.3
2022-11-24T04:54:32.437Z,2.3
2022-11-24T04:59:33.343Z,2.3
2022-11-24T05:02:14.043Z,2.3
2022-11-24T05:04:44.763Z,2.1
2022-11-24T05:07:18.210Z,2.1
2022-11-24T05:09:59.130Z,2.1
2022-11-24T05:12:20.261Z,2.0
2022-11-24T05:14:50.863Z,2.2
2022-11-24T05:17:31.479Z,2.2
2022-11-24T05:20:02.091Z,2.2
2022-11-24T05:22:32.694Z,2.3
2022-11-24T05:25:03.289Z,2.3
2022-11-24T05:27:33.992Z,2.3
2022-11-24T05:30:04.574Z,2.3
2022-11-24T05:32:45.198Z,2.3
2022-11-24T05:35:15.792Z,2.3
2022-11-24T05:40:16.540Z,2.3
2022-11-24T05:42:48.178Z,2.3
2022-11-24T05:45:18.903Z,2.2
2022-11-24T05:47:59.516Z,2.2
2022-11-24T05:50:30.152Z,2.2
2022-11-24T05:53:00.759Z,2.2
2022-11-24T05:55:31.364Z,2.2
2022-11-24T05:58:01.948Z,2.1
2022-11-24T06:00:32.562Z,2.1
2022-11-24T06:03:13.218Z,2.0
2022-11-24T06:05:43.851Z,2.0
2022-11-24T06:08:14.423Z,2.0
2022-11-24T06:10:50.148Z,2.1
2022-11-24T06:13:20.803Z,2.1
2022-11-24T06:16:02.197Z,2.1
2022-11-24T06:21:10.613Z,2.1
2022-11-24T06:23:31.882Z,2.1
2022-11-24T06:26:02.527Z,2.3
2022-11-24T06:28:33.135Z,2.3
2022-11-24T06:31:13.796Z,2.3
2022-11-24T06:33:44.572Z,2.2
2022-11-24T06:36:15.179Z,2.1
2022-11-24T06:38:45.826Z,2.0
2022-11-24T06:41:16.443Z,2.0
2022-11-24T06:43:47.045Z,2.0
2022-11-24T06:46:27.650Z,2.1
2022-11-24T06:48:58.251Z,2.2
2022-11-24T06:51:28.871Z,2.1
2022-11-24T06:53:59.471Z,2.2
2022-11-24T06:56:30.078Z,2.1
2022-11-24T07:01:40.882Z,2.0
2022-11-24T07:04:11.493Z,2.0
2022-11-24T07:06:42.306Z,2.0
2022-11-24T07:09:12.881Z,2.0
2022-11-24T07:11:43.489Z,1.9
2022-11-24T07:14:14.125Z,2.0
2022-11-24T07:16:55.148Z,2.1
2022-11-24T07:19:25.761Z,2.1
2022-11-24T07:21:56.336Z,2.1
2022-11-24T07:24:26.927Z,2.1
2022-11-24T07:26:57.975Z,2.1
2022-11-24T07:29:38.579Z,2.2
2022-11-24T07:32:09.210Z,2.3
2022-11-24T07:34:39.854Z,2.3
2022-11-24T07:37:20.488Z,2.4
2022-11-24T07:42:12.533Z,2.5
2022-11-24T07:44:53.135Z,2.7
2022-11-24T07:47:23.738Z,2.7
2022-11-24T07:50:04.366Z,2.8
2022-11-24T07:52:34.980Z,2.9
2022-11-24T07:55:05.599Z,2.9
2022-11-24T07:57:36.205Z,3.0
2022-11-24T08:00:16.824Z,3.0
2022-11-24T08:02:47.467Z,3.1
2022-11-24T08:05:18.073Z,3.1
2022-11-24T08:07:49.600Z,3.0
2022-11-24T08:10:20.212Z,3.1
2022-11-24T08:12:50.799Z,3.0
2022-11-24T08:15:31.439Z,3.0
2022-11-24T08:18:02.051Z,2.9
2022-11-24T08:23:02.799Z,3.0
2022-11-24T08:25:33.370Z,3.0
2022-11-24T08:27:57.253Z,3.1
2022-11-24T08:30:37.897Z,3.2
2022-11-24T08:33:08.499Z,3.3
2022-11-24T08:35:39.095Z,3.4
2022-11-24T08:38:09.665Z,3.5
2022-11-24T08:40:40.284Z,3.6
2022-11-24T08:43:20.904Z,3.8
2022-11-24T08:46:01.542Z,3.7
2022-11-24T08:48:32.392Z,3.8
2022-11-24T08:51:03.026Z,3.8
2022-11-24T08:53:33.650Z,3.7
2022-11-24T08:56:04.270Z,3.7
2022-11-24T08:58:44.926Z,3.8
2022-11-24T09:03:50.283Z,3.7
2022-11-24T09:06:11.542Z,3.7
2022-11-24T09:08:42.111Z,3.7
2022-11-24T09:11:12.702Z,3.9
2022-11-24T09:13:53.319Z,3.8
2022-11-24T09:16:23.999Z,3.9
2022-11-24T09:18:54.760Z,4.0
2022-11-24T09:21:25.373Z,4.0
2022-11-24T09:23:55.992Z,3.9
2022-11-24T09:26:26.603Z,3.9
2022-11-24T09:29:08.260Z,3.9
2022-11-24T09:31:38.878Z,3.9
2022-11-24T09:34:06.601Z,4.0
2022-11-24T09:36:37.239Z,3.9
2022-11-24T09:39:07.853Z,4.0
2022-11-24T09:44:28.613Z,4.1
2022-11-24T09:46:59.276Z,4.1
2022-11-24T09:49:29.891Z,4.1
2022-11-24T09:51:51.990Z,4.2
2022-11-24T09:54:22.595Z,4.1
2022-11-24T09:57:03.210Z,4.1
2022-11-24T09:59:43.809Z,4.1
2022-11-24T10:02:14.412Z,4.1
2022-11-24T10:04:45.033Z,4.0
2022-11-24T10:07:15.964Z,4.0
2022-11-24T10:09:46.772Z,4.0
2022-11-24T10:12:27.404Z,3.9
2022-11-24T10:14:58.034Z,3.9
2022-11-24T10:17:28.645Z,3.9
2022-11-24T10:19:59.287Z,3.9
2022-11-24T10:25:00.023Z,4.0
2022-11-24T10:27:40.689Z,3.9
2022-11-24T10:30:11.328Z,3.9
2022-11-24T10:32:41.918Z,3.9
2022-11-24T10:35:12.517Z,3.8
2022-11-24T10:37:43.112Z,3.8
2022-11-24T10:40:33.290Z,3.7
2022-11-24T10:42:49.546Z,3.7
2022-11-24T10:45:20.185Z,3.6
2022-11-24T10:47:50.829Z,3.7
2022-11-24T10:50:21.443Z,3.6
2022-11-24T10:52:52.053Z,3.6
2022-11-24T10:55:32.676Z,3.6
2022-11-24T10:58:03.259Z,3.6
2022-11-24T11:00:33.871Z,3.6
2022-11-24T11:05:34.621Z,3.7
2022-11-24T11:08:05.689Z,3.8
2022-11-24T11:10:46.447Z,3.8
2022-11-24T11:13:17.057Z,3.8
2022-11-24T11:15:47.691Z,3.9
2022-11-24T11:18:18.521Z,3.9
2022-11-24T11:20:49.100Z,3.9
2022-11-24T11:23:19.691Z,3.9
2022-11-24T11:26:00.306Z,3.9
2022-11-24T11:28:30.931Z,4.0
2022-11-24T11:31:19.565Z,4.0
2022-11-24T11:34:05.232Z,3.9
2022-11-24T11:36:05.780Z,4.0
2022-11-24T11:38:36.430Z,4.0
2022-11-24T11:41:17.081Z,4.0
2022-11-24T11:46:18.070Z,4.1
2022-11-24T11:48:48.960Z,4.1
2022-11-24T11:51:23.871Z,4.2
2022-11-24T11:54:05.136Z,4.2
2022-11-24T11:56:35.763Z,4.3
2022-11-24T11:59:06.380Z,4.4
2022-11-24T12:01:37.007Z,4.4
2022-11-24T12:04:07.747Z,4.5
2022-11-24T12:06:38.517Z,4.4
2022-11-24T12:09:20.870Z,4.5
2022-11-24T12:11:51.851Z,4.4
2022-11-24T12:14:22.457Z,4.4
2022-11-24T12:16:53.091Z,4.3
2022-11-24T12:19:23.695Z,4.3
2022-11-24T12:21:54.608Z,4.3
2022-11-24T12:27:05.361Z,4.4
2022-11-24T12:29:32.897Z,4.4
2022-11-24T12:32:03.610Z,4.5
2022-11-24T12:34:34.189Z,4.5
2022-11-24T12:37:04.797Z,4.5
2022-11-24T12:39:45.426Z,4.5
2022-11-24T12:42:16.076Z,4.4
2022-11-24T12:44:46.658Z,4.3
2022-11-24T12:47:17.254Z,4.3
2022-11-24T12:49:47.851Z,4.2
2022-11-24T12:52:18.475Z,4.2
2022-11-24T12:54:59.068Z,4.3
2022-11-24T12:57:29.672Z,4.3
2022-11-24T13:00:00.302Z,4.3
2022-11-24T13:02:31.172Z,4.2
2022-11-24T13:07:42.532Z,4.0
2022-11-24T13:10:13.207Z,4.0
2022-11-24T13:12:48.236Z,4.0
2022-11-24T13:15:36.391Z,4.1
2022-11-24T13:18:05.464Z,4.2
2022-11-24T13:24:44.646Z,4.2
2022-11-24T13:25:15.174Z,4.3
2022-11-24T13:25:45.674Z,4.3
2022-11-24T13:28:06.273Z,4.3
2022-11-24T13:30:30.686Z,4.3
2022-11-24T13:33:01.292Z,4.3
2022-11-24T13:35:37.631Z,4.3
2022-11-24T13:38:18.322Z,4.3
2022-11-24T13:41:00.077Z,4.3
2022-11-24T13:43:19.095Z,4.3
2022-11-24T13:50:50.038Z,4.2
2022-11-24T13:53:30.715Z,4.2
2022-11-24T13:56:01.356Z,4.2
2022-11-24T13:58:31.963Z,4.3
2022-11-24T14:01:02.596Z,4.3
2022-11-24T14:03:33.492Z,4.3
2022-11-24T14:06:01.340Z,4.3
2022-11-24T14:08:41.986Z,4.3
2022-11-24T14:11:12.562Z,4.4
2022-11-24T14:13:43.118Z,4.3
2022-11-24T14:16:13.762Z,4.3
2022-11-24T14:18:44.667Z,4.3
2022-11-24T14:21:25.271Z,4.4
2022-11-24T14:23:55.866Z,4.4
2022-11-24T14:28:56.644Z,4.5
2022-11-24T14:31:27.363Z,4.3
2022-11-24T14:33:58.151Z,4.3
2022-11-24T14:36:38.746Z,4.3
2022-11-24T14:39:09.378Z,4.4
2022-11-24T14:41:39.998Z,4.4
2022-11-24T14:44:20.620Z,4.6
2022-11-24T14:46:51.308Z,4.5
2022-11-24T14:49:22.042Z,4.5
2022-11-24T14:52:02.735Z,4.4
2022-11-24T14:54:33.482Z,4.3
2022-11-24T14:57:04.267Z,4.3
2022-11-24T14:59:34.921Z,4.2
2022-11-24T15:02:05.536Z,4.2
2022-11-24T15:05:01.323Z,4.0
2022-11-24T15:09:43.037Z,3.9
2022-11-24T15:12:13.644Z,3.9
2022-11-24T15:14:44.248Z,3.8
2022-11-24T15:17:14.868Z,3.7
2022-11-24T15:19:45.490Z,3.7
2022-11-24T15:22:26.085Z,3.6
2022-11-24T15:24:56.700Z,3.6
2022-11-24T15:27:27.314Z,3.6
2022-11-24T15:29:57.920Z,3.6
2022-11-24T15:32:28.521Z,3.5
2022-11-24T15:35:09.134Z,3.5
2022-11-24T15:37:39.726Z,3.5
2022-11-24T15:40:10.337Z,3.5
2022-11-24T15:42:40.944Z,3.5
2022-11-24T15:45:16.693Z,3.5
2022-11-24T15:50:27.462Z,3.4
2022-11-24T15:52:58.077Z,3.4
2022-11-24T15:55:28.690Z,3.4
2022-11-24T15:57:59.297Z,3.4
2022-11-24T16:00:29.893Z,3.3
2022-11-24T16:03:12.980Z,3.3
2022-11-24T16:05:37.879Z,3.3
2022-11-24T16:08:08.473Z,3.1
2022-11-24T16:10:39.069Z,3.1
2022-11-24T16:13:09.659Z,3.0
2022-11-24T16:15:40.314Z,2.9
2022-11-24T16:18:11.029Z,2.9
2022-11-24T16:20:51.645Z,2.8
2022-11-24T16:23:22.214Z,2.7
2022-11-24T16:25:52.814Z,2.7
2022-11-24T16:30:53.571Z,2.6
2022-11-24T16:33:34.676Z,2.5
2022-11-24T16:36:05.388Z,2.4
2022-11-24T16:38:35.983Z,2.3
2022-11-24T16:41:06.618Z,2.3
2022-11-24T16:43:37.232Z,2.3
2022-11-24T16:46:17.950Z,2.3
2022-11-24T16:48:58.700Z,2.2
2022-11-24T16:51:34.374Z,2.2
2022-11-24T16:53:55.373Z,2.1
2022-11-24T16:56:26.000Z,2.0
2022-11-24T16:58:56.562Z,1.9
2022-11-24T17:01:27.255Z,1.8
2022-11-24T17:04:12.356Z,1.8
2022-11-24T17:06:43.784Z,1.7
2022-11-24T17:11:44.529Z,1.7
2022-11-24T17:14:15.129Z,1.6
2022-11-24T17:16:45.986Z,1.5
2022-11-24T17:19:26.776Z,1.4
2022-11-24T17:21:57.377Z,1.3
2022-11-24T17:24:27.956Z,1.2
2022-11-24T17:26:58.536Z,1.2
2022-11-24T17:29:29.155Z,1.2
2022-11-24T17:31:59.855Z,1.5
2022-11-24T17:34:40.647Z,1.5
2022-11-24T17:37:11.254Z,1.6
2022-11-24T17:39:42.361Z,1.6
2022-11-24T17:42:11.296Z,1.6
2022-11-24T17:44:41.886Z,1.7
2022-11-24T17:47:22.488Z,1.7
2022-11-24T17:52:23.249Z,1.7
2022-11-24T17:54:53.854Z,1.7
2022-11-24T17:57:24.458Z,1.7
2022-11-24T17:59:55.047Z,1.6
2022-11-24T18:02:35.722Z,1.5
2022-11-24T18:05:06.487Z,1.5
2022-11-24T18:07:37.199Z,1.4
2022-11-24T18:10:08.080Z,1.2
2022-11-24T18:12:38.654Z,1.1
2022-11-24T18:15:09.257Z,1.0
2022-11-24T18:17:49.862Z,0.9
2022-11-24T18:20:20.499Z,0.9
2022-11-24T18:23:04.897Z,0.8
2022-11-24T18:25:26.047Z,0.7
2022-11-24T18:27:56.659Z,0.7
2022-11-24T18:33:07.419Z,0.8
2022-11-24T18:35:38.018Z,0.7
2022-11-24T18:38:08.602Z,0.7
2022-11-24T18:40:39.295Z,0.7
2022-11-24T18:43:09.880Z,0.7
2022-11-24T18:45:50.524Z,0.8
2022-11-24T18:48:21.319Z,0.8
2022-11-24T18:50:51.990Z,0.7
2022-11-24T18:53:22.611Z,0.7
2022-11-24T18:55:53.235Z,0.7
2022-11-24T18:58:23.860Z,0.6
2022-11-24T19:01:04.488Z,0.7
2022-11-24T19:03:35.534Z,0.7
2022-11-24T19:08:39.263Z,0.7
2022-11-24T19:13:39.998Z,0.7
2022-11-24T19:16:20.643Z,0.6
2022-11-24T19:18:53.870Z,0.6
2022-11-24T19:21:24.841Z,0.6
2022-11-24T19:23:58.631Z,0.7
2022-11-24T19:26:21.848Z,0.6
2022-11-24T19:28:52.469Z,0.6
2022-11-24T19:31:33.144Z,0.6
2022-11-24T19:34:03.884Z,0.7
2022-11-24T19:36:34.466Z,0.8
2022-11-24T19:39:05.326Z,0.8
2022-11-24T19:41:36.046Z,0.7
2022-11-24T19:44:16.636Z,0.7
2022-11-24T19:46:47.487Z,0.6
2022-11-24T19:49:18.062Z,0.4
2022-11-24T19:54:18.790Z,0.2
2022-11-24T19:56:49.407Z,0.1
2022-11-24T19:59:30.008Z,0.0
2022-11-24T20:02:00.656Z,-0.1
2022-11-24T20:04:31.496Z,-0.2
2022-11-24T20:07:02.111Z,-0.2
2022-11-24T20:09:32.908Z,-0.3
2022-11-24T20:12:03.526Z,-0.3
2022-11-24T20:14:44.111Z,-0.3
2022-11-24T20:17:14.708Z,-0.3
2022-11-24T20:19:45.319Z,-0.4
2022-11-24T20:22:15.928Z,-0.3
2022-11-24T20:24:46.505Z,-0.4
2022-11-24T20:27:17.127Z,-0.3
2022-11-24T20:29:57.749Z,-0.3
2022-11-24T20:34:58.511Z,-0.4
2022-11-24T20:37:35.426Z,-0.4
2022-11-24T20:40:06.004Z,-0.5
2022-11-24T20:42:36.623Z,-0.5
2022-11-24T20:45:17.263Z,-0.6
2022-11-24T20:47:47.971Z,-0.6
2022-11-24T20:50:18.597Z,-0.5
2022-11-24T20:52:49.171Z,-0.5
2022-11-24T20:55:19.939Z,-0.5
2022-11-24T20:58:00.536Z,-0.5
2022-11-24T21:00:31.128Z,-0.7
2022-11-24T21:03:01.856Z,-0.6
2022-11-24T21:05:32.481Z,-0.5
2022-11-24T21:08:03.101Z,-0.5
2022-11-24T21:10:33.714Z,-0.5
2022-11-24T21:15:44.487Z,-0.6
2022-11-24T21:18:15.117Z,-0.6
2022-11-24T21:20:45.721Z,-0.7
2022-11-24T21:23:16.309Z,-0.8
2022-11-24T21:25:46.911Z,-0.8
2022-11-24T21:28:25.148Z,-0.8
2022-11-24T21:30:55.774Z,-0.8
2022-11-24T21:33:26.470Z,-0.7
2022-11-24T21:35:57.056Z,-0.8
2022-11-24T21:38:27.629Z,-0.9
2022-11-24T21:40:58.241Z,-1.0
2022-11-24T21:43:38.835Z,-1.1
2022-11-24T21:46:19.510Z,-1.2
2022-11-24T21:48:45.949Z,-1.3
2022-11-24T21:51:16.556Z,-1.3
2022-11-24T21:56:17.313Z,-1.5
2022-11-24T21:58:57.915Z,-1.6
2022-11-24T22:01:28.648Z,-1.7
2022-11-24T22:03:59.501Z,-1.7
2022-11-24T22:06:30.142Z,-1.7
2022-11-24T22:09:00.737Z,-1.7
2022-11-24T22:11:38.009Z,-1.7
2022-11-24T22:14:08.573Z,-1.7
2022-11-24T22:16:39.265Z,-1.6
2022-11-24T22:19:10.025Z,-1.5
2022-11-24T22:21:40.651Z,-1.5
2022-11-24T22:24:11.306Z,-1.6
2022-11-24T22:26:57.929Z,-1.5
2022-11-24T22:29:28.527Z,-1.6
2022-11-24T22:31:54.267Z,-1.5
2022-11-24T22:36:55.243Z,-1.3
2022-11-24T22:39:25.824Z,-1.2
2022-11-24T22:42:16.441Z,-1.2
2022-11-24T22:44:47.045Z,-1.2
2022-11-24T22:47:17.630Z,-1.2
2022-11-24T22:49:48.220Z,-1.3
2022-11-24T22:52:18.824Z,-1.4
2022-11-24T22:54:49.448Z,-1.5
2022-11-24T22:57:30.063Z,-1.6
2022-11-24T22:59:57.013Z,-1.5
2022-11-24T23:02:27.675Z,-1.5
2022-11-24T23:04:58.371Z,-1.5
2022-11-24T23:07:31.283Z,-1.5
2022-11-24T23:10:02.133Z,-1.4
2022-11-24T23:12:42.750Z,-1.3
2022-11-24T23:17:43.500Z,-1.3
2022-11-24T23:20:14.109Z,-1.5
2022-11-24T23:22:44.715Z,-1.5
2022-11-24T23:25:15.314Z,-1.6
2022-11-24T23:27:55.918Z,-1.6
2022-11-24T23:30:26.539Z,-1.7
2022-11-24T23:35:27.300Z,-1.8
2022-11-24T23:38:07.264Z,-1.9
2022-11-24T23:40:38.306Z,-2.0
2022-11-24T23:45:39.056Z,-2.2
2022-11-24T23:48:09.815Z,-2.5
2022-11-24T23:50:40.401Z,-2.5
2022-11-24T23:53:11.020Z,-2.7
2022-11-24T23:58:21.794Z,-2.9
